sensor_id;sensor_type;location;lat;lon;timestamp;pressure;altitude;pressure_sealevel;temperature;humidity
66887;BME280;67239;51.680;5.976;2024-02-21T00:02:26;102112.34;;;8.73;100.00
66887;BME280;67239;51.680;5.976;2024-02-21T00:04:53;102105.34;;;8.73;100.00
66887;BME280;67239;51.680;5.976;2024-02-21T00:07:21;102109.72;;;8.74;100.00
66887;BME280;67239;51.680;5.976;2024-02-21T00:09:48;102107.97;;;8.75;100.00
66887;BME280;67239;51.680;5.976;2024-02-21T00:12:15;102100.06;;;8.75;100.00
66887;BME280;67239;51.680;5.976;2024-02-21T00:14:43;102107.97;;;8.75;100.00
66887;BME280;67239;51.680;5.976;2024-02-21T00:17:10;102107.09;;;8.74;100.00
66887;BME280;67239;51.680;5.976;2024-02-21T00:19:37;102104.47;;;8.76;100.00
66887;BME280;67239;51.680;5.976;2024-02-21T00:22:04;102096.56;;;8.77;100.00
66887;BME280;67239;51.680;5.976;2024-02-21T00:24:31;102085.16;;;8.78;100.00
66887;BME280;67239;51.680;5.976;2024-02-21T00:26:59;102084.28;;;8.79;100.00
66887;BME280;67239;51.680;5.976;2024-02-21T00:29:26;102080.78;;;8.79;100.00
66887;BME280;67239;51.680;5.976;2024-02-21T00:31:54;102078.16;;;8.77;100.00
66887;BME280;67239;51.680;5.976;2024-02-21T00:34:21;102076.41;;;8.75;100.00
66887;BME280;67239;51.680;5.976;2024-02-21T00:36:48;102072.91;;;8.73;100.00
66887;BME280;67239;51.680;5.976;2024-02-21T00:39:17;102066.75;;;8.70;100.00
66887;BME280;67239;51.680;5.976;2024-02-21T00:41:44;102066.78;;;8.67;100.00
66887;BME280;67239;51.680;5.976;2024-02-21T00:44:11;102072.94;;;8.66;100.00
66887;BME280;67239;51.680;5.976;2024-02-21T00:46:38;102065.94;;;8.64;100.00
66887;BME280;67239;51.680;5.976;2024-02-21T01:18:06;102043.13;;;8.66;100.00
66887;BME280;67239;51.680;5.976;2024-02-21T01:20:34;102046.63;;;8.69;100.00
66887;BME280;67239;51.680;5.976;2024-02-21T01:23:01;102041.38;;;8.69;100.00
66887;BME280;67239;51.680;5.976;2024-02-21T01:25:28;102036.97;;;8.70;100.00
66887;BME280;67239;51.680;5.976;2024-02-21T01:27:55;102037.00;;;8.68;100.00
66887;BME280;67239;51.680;5.976;2024-02-21T01:30:22;102029.97;;;8.70;100.00
66887;BME280;67239;51.680;5.976;2024-02-21T01:32:50;102030.00;;;8.67;100.00
66887;BME280;67239;51.680;5.976;2024-02-21T01:35:17;102025.63;;;8.66;100.00
66887;BME280;67239;51.680;5.976;2024-02-21T01:37:45;102020.34;;;8.63;100.00
66887;BME280;67239;51.680;5.976;2024-02-21T01:40:12;102030.00;;;8.61;100.00
66887;BME280;67239;51.680;5.976;2024-02-21T01:42:39;102020.34;;;8.60;100.00
66887;BME280;67239;51.680;5.976;2024-02-21T01:45:10;102007.25;;;8.57;100.00
66887;BME280;67239;51.680;5.976;2024-02-21T01:47:37;101998.47;;;8.55;100.00
66887;BME280;67239;51.680;5.976;2024-02-21T01:50:05;101990.63;;;8.53;100.00
66887;BME280;67239;51.680;5.976;2024-02-21T01:52:33;101981.84;;;8.50;100.00
66887;BME280;67239;51.680;5.976;2024-02-21T01:55:02;101976.59;;;8.48;100.00
66887;BME280;67239;51.680;5.976;2024-02-21T01:57:31;101977.47;;;8.46;100.00
66887;BME280;67239;51.680;5.976;2024-02-21T01:59:59;101977.47;;;8.44;100.00
66887;BME280;67239;51.680;5.976;2024-02-21T02:02:27;101968.69;;;8.44;100.00
66887;BME280;67239;51.680;5.976;2024-02-21T02:04:54;101962.59;;;8.43;100.00
66887;BME280;67239;51.680;5.976;2024-02-21T02:07:21;101949.44;;;8.42;100.00
66887;BME280;67239;51.680;5.976;2024-02-21T02:09:48;101961.69;;;8.39;100.00
66887;BME280;67239;51.680;5.976;2024-02-21T02:12:16;101970.47;;;8.37;100.00
66887;BME280;67239;51.680;5.976;2024-02-21T02:14:43;101975.72;;;8.38;100.00
66887;BME280;67239;51.680;5.976;2024-02-21T02:17:10;101980.97;;;8.40;100.00
66887;BME280;67239;51.680;5.976;2024-02-21T02:19:37;101974.84;;;8.44;100.00
66887;BME280;67239;51.680;5.976;2024-02-21T02:22:11;101967.84;;;8.48;100.00
66887;BME280;67239;51.680;5.976;2024-02-21T02:24:46;101977.47;;;8.52;100.00
66887;BME280;67239;51.680;5.976;2024-02-21T02:27:13;101967.84;;;8.52;100.00
66887;BME280;67239;51.680;5.976;2024-02-21T02:29:40;101971.34;;;8.54;100.00
66887;BME280;67239;51.680;5.976;2024-02-21T02:32:08;101961.69;;;8.55;100.00
66887;BME280;67239;51.680;5.976;2024-02-21T02:34:35;101962.53;;;8.59;100.00
66887;BME280;67239;51.680;5.976;2024-02-21T02:37:03;101959.06;;;8.58;100.00
66887;BME280;67239;51.680;5.976;2024-02-21T02:39:30;101947.66;;;8.61;100.00
66887;BME280;67239;51.680;5.976;2024-02-21T02:41:57;101952.03;;;8.62;100.00
66887;BME280;67239;51.680;5.976;2024-02-21T02:44:24;101943.25;;;8.63;100.00
66887;BME280;67239;51.680;5.976;2024-02-21T02:46:51;101923.97;;;8.64;100.00
66887;BME280;67239;51.680;5.976;2024-02-21T02:49:18;101917.84;;;8.63;100.00
66887;BME280;67239;51.680;5.976;2024-02-21T02:51:45;101921.34;;;8.65;100.00
66887;BME280;67239;51.680;5.976;2024-02-21T02:54:12;101910.81;;;8.65;100.00
66887;BME280;67239;51.680;5.976;2024-02-21T02:56:39;101919.59;;;8.64;100.00
66887;BME280;67239;51.680;5.976;2024-02-21T02:59:07;101928.31;;;8.65;100.00
66887;BME280;67239;51.680;5.976;2024-02-21T03:01:34;101930.09;;;8.67;100.00
66887;BME280;67239;51.680;5.976;2024-02-21T03:04:02;101918.69;;;8.68;100.00
66887;BME280;67239;51.680;5.976;2024-02-21T03:06:30;101923.94;;;8.70;100.00
66887;BME280;67239;51.680;5.976;2024-02-21T03:08:57;101912.56;;;8.69;100.00
66887;BME280;67239;51.680;5.976;2024-02-21T03:11:24;101911.66;;;8.69;100.00
66887;BME280;67239;51.680;5.976;2024-02-21T03:13:56;101917.81;;;8.71;100.00
66887;BME280;67239;51.680;5.976;2024-02-21T03:16:25;101908.19;;;8.68;100.00
66887;BME280;67239;51.680;5.976;2024-02-21T03:18:52;101912.56;;;8.69;100.00
66887;BME280;67239;51.680;5.976;2024-02-21T03:21:19;101903.75;;;8.70;100.00
66887;BME280;67239;51.680;5.976;2024-02-21T03:23:46;101902.91;;;8.70;100.00
66887;BME280;67239;51.680;5.976;2024-02-21T03:26:13;101895.88;;;8.70;100.00
66887;BME280;67239;51.680;5.976;2024-02-21T03:28:44;101902.03;;;8.69;100.00
66887;BME280;67239;51.680;5.976;2024-02-21T03:31:13;101900.28;;;8.68;100.00
66887;BME280;67239;51.680;5.976;2024-02-21T03:33:42;101899.41;;;8.69;100.00
66887;BME280;67239;51.680;5.976;2024-02-21T03:36:14;101888.91;;;8.69;100.00
66887;BME280;67239;51.680;5.976;2024-02-21T03:38:42;101892.41;;;8.68;100.00
66887;BME280;67239;51.680;5.976;2024-02-21T03:41:09;101897.66;;;8.68;100.00
66887;BME280;67239;51.680;5.976;2024-02-21T03:43:39;101875.75;;;8.69;100.00
66887;BME280;67239;51.680;5.976;2024-02-21T03:46:06;101880.13;;;8.69;100.00
66887;BME280;67239;51.680;5.976;2024-02-21T03:48:34;101877.50;;;8.67;100.00
66887;BME280;67239;51.680;5.976;2024-02-21T03:51:01;101877.50;;;8.67;100.00
66887;BME280;67239;51.680;5.976;2024-02-21T03:53:28;101868.75;;;8.68;100.00
66887;BME280;67239;51.680;5.976;2024-02-21T03:55:55;101858.22;;;8.68;100.00
66887;BME280;67239;51.680;5.976;2024-02-21T03:58:23;101865.25;;;8.69;100.00
66887;BME280;67239;51.680;5.976;2024-02-21T04:00:50;101865.22;;;8.71;100.00
66887;BME280;67239;51.680;5.976;2024-02-21T04:03:18;101867.84;;;8.71;100.00
66887;BME280;67239;51.680;5.976;2024-02-21T04:05:46;101861.69;;;8.70;100.00
66887;BME280;67239;51.680;5.976;2024-02-21T04:08:13;101873.97;;;8.72;100.00
66887;BME280;67239;51.680;5.976;2024-02-21T04:10:41;101869.56;;;8.74;100.00
66887;BME280;67239;51.680;5.976;2024-02-21T04:13:09;101862.59;;;8.71;100.00
66887;BME280;67239;51.680;5.976;2024-02-21T04:15:36;101853.81;;;8.72;100.00
66887;BME280;67239;51.680;5.976;2024-02-21T04:18:03;101856.47;;;8.72;100.00
66887;BME280;67239;51.680;5.976;2024-02-21T04:20:31;101865.19;;;8.73;100.00
66887;BME280;67239;51.680;5.976;2024-02-21T04:22:59;101859.09;;;8.72;100.00
66887;BME280;67239;51.680;5.976;2024-02-21T04:25:26;101858.22;;;8.73;100.00
66887;BME280;67239;51.680;5.976;2024-02-21T04:27:53;101866.94;;;8.74;100.00
66887;BME280;67239;51.680;5.976;2024-02-21T04:30:20;101873.09;;;8.73;100.00
66887;BME280;67239;51.680;5.976;2024-02-21T04:32:47;101871.31;;;8.75;100.00
66887;BME280;67239;51.680;5.976;2024-02-21T04:35:15;101869.56;;;8.74;100.00
66887;BME280;67239;51.680;5.976;2024-02-21T04:37:42;101857.31;;;8.74;100.00
66887;BME280;67239;51.680;5.976;2024-02-21T04:40:09;101861.66;;;8.75;100.00
66887;BME280;67239;51.680;5.976;2024-02-21T04:42:37;101857.31;;;8.76;100.00
66887;BME280;67239;51.680;5.976;2024-02-21T04:45:04;101861.66;;;8.75;100.00
66887;BME280;67239;51.680;5.976;2024-02-21T04:47:31;101859.91;;;8.77;100.00
66887;BME280;67239;51.680;5.976;2024-02-21T04:49:58;101863.41;;;8.76;100.00
66887;BME280;67239;51.680;5.976;2024-02-21T04:52:26;101865.16;;;8.77;100.00
66887;BME280;67239;51.680;5.976;2024-02-21T04:54:53;101863.41;;;8.76;100.00
66887;BME280;67239;51.680;5.976;2024-02-21T04:57:20;101857.28;;;8.77;100.00
66887;BME280;67239;51.680;5.976;2024-02-21T04:59:47;101852.03;;;8.76;100.00
66887;BME280;67239;51.680;5.976;2024-02-21T05:02:15;101852.06;;;8.74;100.00
66887;BME280;67239;51.680;5.976;2024-02-21T05:04:42;101852.06;;;8.74;100.00
66887;BME280;67239;51.680;5.976;2024-02-21T05:07:11;101849.44;;;8.74;100.00
66887;BME280;67239;51.680;5.976;2024-02-21T05:09:38;101839.78;;;8.75;100.00
66887;BME280;67239;51.680;5.976;2024-02-21T05:12:06;101831.91;;;8.72;100.00
66887;BME280;67239;51.680;5.976;2024-02-21T05:14:34;101833.66;;;8.73;100.00
66887;BME280;67239;51.680;5.976;2024-02-21T05:17:01;101823.16;;;8.71;100.00
66887;BME280;67239;51.680;5.976;2024-02-21T05:19:28;101812.63;;;8.71;100.00
66887;BME280;67239;51.680;5.976;2024-02-21T05:21:56;101811.75;;;8.70;100.00
66887;BME280;67239;51.680;5.976;2024-02-21T05:24:23;101813.50;;;8.72;100.00
66887;BME280;67239;51.680;5.976;2024-02-21T05:26:51;101807.38;;;8.71;100.00
66887;BME280;67239;51.680;5.976;2024-02-21T05:29:18;101816.13;;;8.72;100.00
66887;BME280;67239;51.680;5.976;2024-02-21T05:34:19;101809.13;;;8.70;100.00
66887;BME280;67239;51.680;5.976;2024-02-21T05:36:47;101806.50;;;8.70;100.00
66887;BME280;67239;51.680;5.976;2024-02-21T05:39:16;101796.00;;;8.69;100.00
66887;BME280;67239;51.680;5.976;2024-02-21T05:41:44;101795.13;;;8.68;100.00
66887;BME280;67239;51.680;5.976;2024-02-21T05:44:12;101789.84;;;8.72;100.00
66887;BME280;67239;51.680;5.976;2024-02-21T05:46:44;101788.03;;;8.78;100.00
66887;BME280;67239;51.680;5.976;2024-02-21T05:49:30;101784.50;;;8.81;100.00
66887;BME280;67239;51.680;5.976;2024-02-21T05:52:00;101773.97;;;8.84;100.00
66887;BME280;67239;51.680;5.976;2024-02-21T05:54:27;101773.09;;;8.85;100.00
66887;BME280;67239;51.680;5.976;2024-02-21T05:56:54;101773.06;;;8.90;100.00
66887;BME280;67239;51.680;5.976;2024-02-21T05:59:21;101761.63;;;8.92;100.00
66887;BME280;67239;51.680;5.976;2024-02-21T06:01:58;101758.13;;;8.95;100.00
66887;BME280;67239;51.680;5.976;2024-02-21T06:04:25;101755.47;;;8.96;100.00
66887;BME280;67239;51.680;5.976;2024-02-21T06:06:53;101750.19;;;8.98;100.00
66887;BME280;67239;51.680;5.976;2024-02-21T06:09:21;101746.69;;;8.96;100.00
66887;BME280;67239;51.680;5.976;2024-02-21T06:11:48;101752.81;;;8.99;100.00
66887;BME280;67239;51.680;5.976;2024-02-21T06:14:16;101756.28;;;9.01;100.00
66887;BME280;67239;51.680;5.976;2024-02-21T06:16:44;101748.38;;;9.01;100.00
66887;BME280;67239;51.680;5.976;2024-02-21T06:19:11;101739.72;;;8.95;100.00
66887;BME280;67239;51.680;5.976;2024-02-21T06:21:38;101731.00;;;8.88;100.00
66887;BME280;67239;51.680;5.976;2024-02-21T06:24:06;101731.94;;;8.82;100.00
66887;BME280;67239;51.680;5.976;2024-02-21T06:26:33;101733.72;;;8.77;100.00
66887;BME280;67239;51.680;5.976;2024-02-21T06:29:00;101730.25;;;8.72;100.00
66887;BME280;67239;51.680;5.976;2024-02-21T06:31:28;101738.16;;;8.72;100.00
66887;BME280;67239;51.680;5.976;2024-02-21T06:33:56;101739.06;;;8.69;100.00
66887;BME280;67239;51.680;5.976;2024-02-21T06:36:23;101728.53;;;8.68;100.00
66887;BME280;67239;51.680;5.976;2024-02-21T06:38:50;101739.06;;;8.66;100.00
66887;BME280;67239;51.680;5.976;2024-02-21T06:41:18;101733.81;;;8.65;100.00
66887;BME280;67239;51.680;5.976;2024-02-21T06:43:46;101733.81;;;8.65;100.00
66887;BME280;67239;51.680;5.976;2024-02-21T06:46:28;101735.56;;;8.64;100.00
66887;BME280;67239;51.680;5.976;2024-02-21T06:48:58;101732.94;;;8.64;100.00
66887;BME280;67239;51.680;5.976;2024-02-21T06:51:27;101730.34;;;8.63;100.00
66887;BME280;67239;51.680;5.976;2024-02-21T06:53:54;101739.09;;;8.63;100.00
66887;BME280;67239;51.680;5.976;2024-02-21T06:56:23;101739.09;;;8.63;100.00
66887;BME280;67239;51.680;5.976;2024-02-21T06:58:56;101730.31;;;8.64;100.00
66887;BME280;67239;51.680;5.976;2024-02-21T07:01:24;101734.72;;;8.64;100.00
66887;BME280;67239;51.680;5.976;2024-02-21T07:03:51;101734.72;;;8.64;100.00
66887;BME280;67239;51.680;5.976;2024-02-21T07:06:18;101733.81;;;8.65;100.00
66887;BME280;67239;51.680;5.976;2024-02-21T07:08:46;101735.56;;;8.66;100.00
66887;BME280;67239;51.680;5.976;2024-02-21T07:11:13;101737.31;;;8.65;100.00
66887;BME280;67239;51.680;5.976;2024-02-21T07:13:40;101734.66;;;8.67;100.00
66887;BME280;67239;51.680;5.976;2024-02-21T07:16:08;101733.81;;;8.66;100.00
66887;BME280;67239;51.680;5.976;2024-02-21T07:18:35;101720.63;;;8.68;100.00
66887;BME280;67239;51.680;5.976;2024-02-21T07:21:02;101725.03;;;8.69;100.00
66887;BME280;67239;51.680;5.976;2024-02-21T07:23:29;101722.38;;;8.70;100.00
66887;BME280;67239;51.680;5.976;2024-02-21T07:25:57;101718.84;;;8.72;100.00
66887;BME280;67239;51.680;5.976;2024-02-21T07:28:24;101724.13;;;8.73;100.00
66887;BME280;67239;51.680;5.976;2024-02-21T07:30:51;101710.94;;;8.76;100.00
66887;BME280;67239;51.680;5.976;2024-02-21T07:33:18;101711.78;;;8.78;100.00
66887;BME280;67239;51.680;5.976;2024-02-21T07:35:45;101707.41;;;8.79;100.00
66887;BME280;67239;51.680;5.976;2024-02-21T07:38:12;101706.50;;;8.81;100.00
66887;BME280;67239;51.680;5.976;2024-02-21T07:40:41;101707.38;;;8.83;100.00
66887;BME280;67239;51.680;5.976;2024-02-21T07:43:08;101697.72;;;8.84;100.00
66887;BME280;67239;51.680;5.976;2024-02-21T07:45:35;101684.53;;;8.85;100.00
66887;BME280;67239;51.680;5.976;2024-02-21T07:48:02;101691.50;;;8.91;100.00
66887;BME280;67239;51.680;5.976;2024-02-21T07:50:30;101690.63;;;8.92;100.00
66887;BME280;67239;51.680;5.976;2024-02-21T07:52:57;101679.22;;;8.95;100.00
66887;BME280;67239;51.680;5.976;2024-02-21T07:55:24;101674.81;;;8.98;100.00
66887;BME280;67239;51.680;5.976;2024-02-21T07:57:52;101673.91;;;8.99;100.00
66887;BME280;67239;51.680;5.976;2024-02-21T08:00:19;101664.22;;;9.05;100.00
66887;BME280;67239;51.680;5.976;2024-02-21T08:02:50;101657.16;;;9.08;100.00
66887;BME280;67239;51.680;5.976;2024-02-21T08:05:26;101656.25;;;9.12;100.00
66887;BME280;67239;51.680;5.976;2024-02-21T08:07:53;101646.50;;;9.17;100.00
66887;BME280;67239;51.680;5.976;2024-02-21T08:10:24;101643.84;;;9.24;100.00
66887;BME280;67239;51.680;5.976;2024-02-21T08:12:51;101635.00;;;9.29;100.00
66887;BME280;67239;51.680;5.976;2024-02-21T08:15:18;101629.69;;;9.32;100.00
66887;BME280;67239;51.680;5.976;2024-02-21T08:17:45;101634.91;;;9.36;100.00
66887;BME280;67239;51.680;5.976;2024-02-21T08:20:12;101628.72;;;9.40;100.00
66887;BME280;67239;51.680;5.976;2024-02-21T08:22:40;101635.72;;;9.42;100.00
66887;BME280;67239;51.680;5.976;2024-02-21T08:25:07;101638.31;;;9.45;100.00
66887;BME280;67239;51.680;5.976;2024-02-21T08:27:34;101632.13;;;9.46;100.00
66887;BME280;67239;51.680;5.976;2024-02-21T08:30:01;101639.09;;;9.51;100.00
66887;BME280;67239;51.680;5.976;2024-02-21T08:32:28;101624.13;;;9.54;100.00
66887;BME280;67239;51.680;5.976;2024-02-21T08:34:56;101624.97;;;9.58;100.00
66887;BME280;67239;51.680;5.976;2024-02-21T08:37:23;101617.00;;;9.62;100.00
66887;BME280;67239;51.680;5.976;2024-02-21T08:39:50;101605.56;;;9.63;100.00
66887;BME280;67239;51.680;5.976;2024-02-21T08:42:17;101602.00;;;9.69;100.00
66887;BME280;67239;51.680;5.976;2024-02-21T08:44:44;101606.38;;;9.70;100.00
66887;BME280;67239;51.680;5.976;2024-02-21T08:47:11;101606.38;;;9.70;100.00
66887;BME280;67239;51.680;5.976;2024-02-21T08:49:39;101602.00;;;9.71;100.00
66887;BME280;67239;51.680;5.976;2024-02-21T08:52:06;101602.00;;;9.69;100.00
66887;BME280;67239;51.680;5.976;2024-02-21T08:54:33;101592.31;;;9.71;100.00
66887;BME280;67239;51.680;5.976;2024-02-21T08:57:01;101583.53;;;9.72;100.00
66887;BME280;67239;51.680;5.976;2024-02-21T08:59:28;101589.66;;;9.74;100.00
66887;BME280;67239;51.680;5.976;2024-02-21T09:01:55;101590.50;;;9.76;100.00
66887;BME280;67239;51.680;5.976;2024-02-21T09:04:22;101581.69;;;9.77;100.00
66887;BME280;67239;51.680;5.976;2024-02-21T09:06:50;101572.88;;;9.78;100.00
66887;BME280;67239;51.680;5.976;2024-02-21T09:09:19;101562.31;;;9.82;100.00
66887;BME280;67239;51.680;5.976;2024-02-21T09:11:46;101563.13;;;9.85;100.00
66887;BME280;67239;51.680;5.976;2024-02-21T09:14:13;101558.75;;;9.86;100.00
66887;BME280;67239;51.680;5.976;2024-02-21T09:16:41;101547.31;;;9.87;100.00
66887;BME280;67239;51.680;5.976;2024-02-21T09:19:08;101556.88;;;9.92;100.00
66887;BME280;67239;51.680;5.976;2024-02-21T09:21:37;101558.56;;;9.97;100.00
66887;BME280;67239;51.680;5.976;2024-02-21T09:24:05;101555.81;;;10.04;100.00
66887;BME280;67239;51.680;5.976;2024-02-21T09:26:33;101552.22;;;10.10;100.00
66887;BME280;67239;51.680;5.976;2024-02-21T09:29:00;101547.75;;;10.14;100.00
66887;BME280;67239;51.680;5.976;2024-02-21T09:31:27;101549.47;;;10.16;100.00
66887;BME280;67239;51.680;5.976;2024-02-21T09:33:54;101547.63;;;10.20;100.00
66887;BME280;67239;51.680;5.976;2024-02-21T09:36:22;101547.56;;;10.24;100.00
66887;BME280;67239;51.680;5.976;2024-02-21T09:38:49;101551.00;;;10.28;100.00
66887;BME280;67239;51.680;5.976;2024-02-21T09:41:26;101559.75;;;10.32;100.00
66887;BME280;67239;51.680;5.976;2024-02-21T09:43:57;101549.25;;;10.29;100.00
66887;BME280;67239;51.680;5.976;2024-02-21T09:46:52;101543.16;;;10.23;100.00
66887;BME280;67239;51.680;5.976;2024-02-21T09:49:30;101548.59;;;10.14;100.00
66887;BME280;67239;51.680;5.976;2024-02-21T09:52:05;101550.56;;;10.03;100.00
66887;BME280;67239;51.680;5.976;2024-02-21T09:54:34;101544.53;;;9.94;100.00
66887;BME280;67239;51.680;5.976;2024-02-21T09:57:04;101534.16;;;9.85;100.00
66887;BME280;67239;51.680;5.976;2024-02-21T09:59:32;101528.19;;;9.75;100.00
66887;BME280;67239;51.680;5.976;2024-02-21T10:02:00;101523.91;;;9.68;100.00
66887;BME280;67239;51.680;5.976;2024-02-21T10:04:29;101527.47;;;9.64;100.00
66887;BME280;67239;51.680;5.976;2024-02-21T10:06:57;101522.22;;;9.62;100.00
66887;BME280;67239;51.680;5.976;2024-02-21T10:09:25;101517.00;;;9.61;100.00
66887;BME280;67239;51.680;5.976;2024-02-21T10:12:10;101501.19;;;9.61;100.00
66887;BME280;67239;51.680;5.976;2024-02-21T10:14:40;101505.59;;;9.59;100.00
66887;BME280;67239;51.680;5.976;2024-02-21T10:17:10;101501.22;;;9.59;100.00
66887;BME280;67239;51.680;5.976;2024-02-21T10:19:45;101482.81;;;9.58;100.00
66887;BME280;67239;51.680;5.976;2024-02-21T10:22:15;101473.09;;;9.61;100.00
66887;BME280;67239;51.680;5.976;2024-02-21T10:24:42;101470.41;;;9.64;100.00
66887;BME280;67239;51.680;5.976;2024-02-21T10:27:10;101457.22;;;9.68;100.00
66887;BME280;67239;51.680;5.976;2024-02-21T10:29:39;101458.88;;;9.72;100.00
66887;BME280;67239;51.680;5.976;2024-02-21T10:32:11;101448.31;;;9.75;100.00
66887;BME280;67239;51.680;5.976;2024-02-21T10:34:42;101436.84;;;9.77;100.00
66887;BME280;67239;51.680;5.976;2024-02-21T10:37:11;101420.03;;;9.86;100.00
66887;BME280;67239;51.680;5.976;2024-02-21T10:39:40;101418.09;;;9.96;100.00
66887;BME280;67239;51.680;5.976;2024-02-21T10:42:10;101414.41;;;10.05;100.00
66887;BME280;67239;51.680;5.976;2024-02-21T10:44:40;101416.91;;;10.13;100.00
66887;BME280;67239;51.680;5.976;2024-02-21T10:47:10;101414.09;;;10.22;100.00
66887;BME280;67239;51.680;5.976;2024-02-21T10:49:41;101406.88;;;10.32;100.00
66887;BME280;67239;51.680;5.976;2024-02-21T10:55:21;101379.38;;;10.45;100.00
66887;BME280;67239;51.680;5.976;2024-02-21T10:58:00;101376.59;;;10.53;100.00
66887;BME280;67239;51.680;5.976;2024-02-21T11:00:30;101365.91;;;10.61;100.00
66887;BME280;67239;51.680;5.976;2024-02-21T11:02:58;101350.88;;;10.64;100.00
66887;BME280;67239;51.680;5.976;2024-02-21T11:05:27;101346.34;;;10.69;100.00
66887;BME280;67239;51.680;5.976;2024-02-21T11:07:55;101333.97;;;10.73;99.81
66887;BME280;67239;51.680;5.976;2024-02-21T11:10:24;101329.63;;;10.70;98.71
66887;BME280;67239;51.680;5.976;2024-02-21T11:13:13;101308.53;;;10.70;98.50
66887;BME280;67239;51.680;5.976;2024-02-21T11:15:41;101303.31;;;10.69;98.52
66887;BME280;67239;51.680;5.976;2024-02-21T11:18:08;101296.22;;;10.71;98.55
66887;BME280;67239;51.680;5.976;2024-02-21T11:20:36;101287.31;;;10.75;97.94
66887;BME280;67239;51.680;5.976;2024-02-21T11:23:05;101291.69;;;10.78;97.51
66887;BME280;67239;51.680;5.976;2024-02-21T11:25:32;101289.84;;;10.80;97.77
66887;BME280;67239;51.680;5.976;2024-02-21T11:28:02;101302.97;;;10.83;97.90
66887;BME280;67239;51.680;5.976;2024-02-21T11:30:31;101313.47;;;10.86;97.17
66887;BME280;67239;51.680;5.976;2024-02-21T11:33:02;101305.53;;;10.86;97.58
66887;BME280;67239;51.680;5.976;2024-02-21T11:35:34;101301.00;;;10.91;97.41
66887;BME280;67239;51.680;5.976;2024-02-21T11:40:39;101275.19;;;11.04;97.33
66887;BME280;67239;51.680;5.976;2024-02-21T11:43:07;101275.03;;;11.10;96.35
66887;BME280;67239;51.680;5.976;2024-02-21T11:45:34;101273.19;;;11.14;96.56
66887;BME280;67239;51.680;5.976;2024-02-21T11:48:02;101260.00;;;11.14;96.74
66887;BME280;67239;51.680;5.976;2024-02-21T11:50:30;101258.13;;;11.17;96.61
66887;BME280;67239;51.680;5.976;2024-02-21T11:52:58;101260.78;;;11.17;96.40
66887;BME280;67239;51.680;5.976;2024-02-21T11:55:25;101246.81;;;11.14;94.63
66887;BME280;67239;51.680;5.976;2024-02-21T11:57:52;101246.06;;;11.09;94.60
66887;BME280;67239;51.680;5.976;2024-02-21T12:00:20;101245.34;;;11.02;94.34
66887;BME280;67239;51.680;5.976;2024-02-21T12:02:48;101246.38;;;10.96;93.79
66887;BME280;67239;51.680;5.976;2024-02-21T12:05:18;101227.03;;;10.96;94.11
66887;BME280;67239;51.680;5.976;2024-02-21T12:07:46;101206.44;;;11.10;94.47
66887;BME280;67239;51.680;5.976;2024-02-21T12:10:14;101206.59;;;11.37;94.45
66887;BME280;67239;51.680;5.976;2024-02-21T12:12:41;101196.31;;;11.58;94.25
66887;BME280;67239;51.680;5.976;2024-02-21T12:15:08;101202.91;;;11.74;94.41
66887;BME280;67239;51.680;5.976;2024-02-21T12:17:36;101200.91;;;11.83;94.54
66887;BME280;67239;51.680;5.976;2024-02-21T12:20:06;101192.06;;;11.84;94.24
66887;BME280;67239;51.680;5.976;2024-02-21T12:22:38;101188.59;;;11.81;93.24
66887;BME280;67239;51.680;5.976;2024-02-21T12:25:16;101185.19;;;11.78;93.47
66887;BME280;67239;51.680;5.976;2024-02-21T12:27:47;101164.16;;;11.75;91.77
66887;BME280;67239;51.680;5.976;2024-02-21T12:30:16;101147.38;;;11.76;92.28
66887;BME280;67239;51.680;5.976;2024-02-21T12:32:43;101136.34;;;11.91;92.11
66887;BME280;67239;51.680;5.976;2024-02-21T12:35:11;101126.31;;;12.04;92.09
66887;BME280;67239;51.680;5.976;2024-02-21T12:37:38;101110.84;;;12.19;90.59
66887;BME280;67239;51.680;5.976;2024-02-21T12:40:08;101105.25;;;12.28;90.23
66887;BME280;67239;51.680;5.976;2024-02-21T12:42:36;101101.50;;;12.35;89.34
66887;BME280;67239;51.680;5.976;2024-02-21T12:45:03;101090.72;;;12.41;88.21
66887;BME280;67239;51.680;5.976;2024-02-21T12:47:31;101095.91;;;12.45;88.01
66887;BME280;67239;51.680;5.976;2024-02-21T12:49:58;101093.97;;;12.50;87.94
66887;BME280;67239;51.680;5.976;2024-02-21T12:52:25;101082.41;;;12.52;87.95
66887;BME280;67239;51.680;5.976;2024-02-21T12:54:53;101060.16;;;12.58;87.52
66887;BME280;67239;51.680;5.976;2024-02-21T12:57:23;101061.75;;;12.64;87.72
66887;BME280;67239;51.680;5.976;2024-02-21T12:59:54;101052.69;;;12.71;88.16
66887;BME280;67239;51.680;5.976;2024-02-21T13:02:21;101040.91;;;12.80;87.85
66887;BME280;67239;51.680;5.976;2024-02-21T13:04:49;101019.44;;;12.87;86.86
66887;BME280;67239;51.680;5.976;2024-02-21T13:07:16;101007.03;;;12.89;85.94
66887;BME280;67239;51.680;5.976;2024-02-21T13:09:43;100992.09;;;12.88;85.04
66887;BME280;67239;51.680;5.976;2024-02-21T13:12:10;100989.50;;;12.87;85.55
66887;BME280;67239;51.680;5.976;2024-02-21T13:14:39;100983.34;;;12.86;85.68
66887;BME280;67239;51.680;5.976;2024-02-21T13:17:06;100978.84;;;12.88;86.39
66887;BME280;67239;51.680;5.976;2024-02-21T13:19:34;100965.63;;;12.88;85.23
66887;BME280;67239;51.680;5.976;2024-02-21T13:22:01;100970.16;;;12.85;84.79
66887;BME280;67239;51.680;5.976;2024-02-21T13:24:30;100968.63;;;12.79;84.56
66887;BME280;67239;51.680;5.976;2024-02-21T13:26:58;100964.31;;;12.77;85.32
66887;BME280;67239;51.680;5.976;2024-02-21T13:29:25;100953.78;;;12.75;84.58
66887;BME280;67239;51.680;5.976;2024-02-21T13:31:52;100937.84;;;12.77;84.27
66887;BME280;67239;51.680;5.976;2024-02-21T13:34:20;100947.56;;;12.76;84.69